Brigg, United Kingdom
Current Conditions -  °F | °C
As of 9:50 AM on Saturday 29 Nov 2014 (Local Time) from EGNJ Reporting Station
Haze Haze  
Wind Chill: 50°   Ceiling: 900
Heat Index: 50°   Visibility: 1.8mi
Dew Point: 48°   Wind: 10mph
Humidity: 94%   Direction: 90°E
Pressure: 29.88"   Gusts: NA
Location:  53.55°N, 0.49°W
Report Text: EGNJ 290950Z 09009KT 3000 HZ SCT007 BKN009 10/09 Q1012
Loading
Personal Weather Stations






























Interactive Weather Map New forecast layout! Learn more

10-Day Weather Forecast

Advertisements
Track Severe Weather on mobile